Terminal Aerodrome Forecast
Issued by NWS

Home | Current Version | Previous Version | Text Only | Print | Product List | Glossary On
Versions: 1 2 3 4 5 6 7 8 9 10 11 12 13 14 15 16 17 18
282
FTUS41 KGYX 301521 AAA
TAFLEB
TAF AMD
KLEB 301521Z 3015/3112 24008KT P6SM BKN100
      TEMPO 3019/3021 4SM -SHRA BKN015
     FM310900 09002KT 1 1/2SM BR OVC003=

USA.gov is the U.S. government's official web portal to all federal, state and local government web resources and services.